sensor_id;sensor_type;location;lat;lon;timestamp;P1;durP1;ratioP1;P2;durP2;ratioP2
41677;SDS011;27364;49.026;8.712;2022-08-16T00:03:42;5.18;;;2.70;;
41677;SDS011;27364;49.026;8.712;2022-08-16T00:06:09;6.55;;;2.90;;
41677;SDS011;27364;49.026;8.712;2022-08-16T00:08:34;7.78;;;3.00;;
41677;SDS011;27364;49.026;8.712;2022-08-16T00:11:00;5.15;;;2.70;;
41677;SDS011;27364;49.026;8.712;2022-08-16T00:13:26;8.15;;;2.70;;
41677;SDS011;27364;49.026;8.712;2022-08-16T00:15:51;8.10;;;2.90;;
41677;SDS011;27364;49.026;8.712;2022-08-16T00:18:18;4.78;;;2.95;;
41677;SDS011;27364;49.026;8.712;2022-08-16T00:20:45;7.43;;;2.90;;
41677;SDS011;27364;49.026;8.712;2022-08-16T00:23:12;6.03;;;2.72;;
41677;SDS011;27364;49.026;8.712;2022-08-16T00:25:38;6.57;;;2.93;;
41677;SDS011;27364;49.026;8.712;2022-08-16T00:28:05;5.05;;;2.90;;
41677;SDS011;27364;49.026;8.712;2022-08-16T00:30:31;7.40;;;3.38;;
41677;SDS011;27364;49.026;8.712;2022-08-16T00:32:57;9.15;;;2.85;;
41677;SDS011;27364;49.026;8.712;2022-08-16T00:35:26;5.67;;;2.90;;
41677;SDS011;27364;49.026;8.712;2022-08-16T00:37:53;4.10;;;2.78;;
41677;SDS011;27364;49.026;8.712;2022-08-16T00:40:27;4.30;;;2.75;;
41677;SDS011;27364;49.026;8.712;2022-08-16T00:42:59;5.75;;;3.05;;
41677;SDS011;27364;49.026;8.712;2022-08-16T00:48:17;10.73;;;3.22;;
41677;SDS011;27364;49.026;8.712;2022-08-16T00:50:43;4.30;;;2.97;;
41677;SDS011;27364;49.026;8.712;2022-08-16T00:53:10;6.05;;;3.08;;
41677;SDS011;27364;49.026;8.712;2022-08-16T00:55:40;5.18;;;2.90;;
41677;SDS011;27364;49.026;8.712;2022-08-16T00:58:11;9.50;;;3.10;;
41677;SDS011;27364;49.026;8.712;2022-08-16T01:00:37;7.20;;;2.85;;
41677;SDS011;27364;49.026;8.712;2022-08-16T01:03:06;4.13;;;2.90;;
41677;SDS011;27364;49.026;8.712;2022-08-16T01:05:35;4.47;;;2.90;;
41677;SDS011;27364;49.026;8.712;2022-08-16T01:08:01;6.65;;;2.50;;
41677;SDS011;27364;49.026;8.712;2022-08-16T01:10:30;5.10;;;2.67;;
41677;SDS011;27364;49.026;8.712;2022-08-16T01:12:57;5.38;;;2.50;;
41677;SDS011;27364;49.026;8.712;2022-08-16T01:15:26;4.03;;;2.70;;
41677;SDS011;27364;49.026;8.712;2022-08-16T01:17:52;3.83;;;2.70;;
41677;SDS011;27364;49.026;8.712;2022-08-16T01:20:18;5.40;;;2.80;;
41677;SDS011;27364;49.026;8.712;2022-08-16T01:23:07;5.85;;;2.90;;
41677;SDS011;27364;49.026;8.712;2022-08-16T01:26:03;5.28;;;3.05;;
41677;SDS011;27364;49.026;8.712;2022-08-16T01:28:30;6.85;;;3.40;;
41677;SDS011;27364;49.026;8.712;2022-08-16T01:30:55;6.75;;;2.97;;
41677;SDS011;27364;49.026;8.712;2022-08-16T01:33:23;6.65;;;3.20;;
41677;SDS011;27364;49.026;8.712;2022-08-16T01:35:57;5.32;;;3.60;;
41677;SDS011;27364;49.026;8.712;2022-08-16T01:38:32;5.82;;;3.45;;
41677;SDS011;27364;49.026;8.712;2022-08-16T01:41:04;5.75;;;3.72;;
41677;SDS011;27364;49.026;8.712;2022-08-16T01:43:35;4.50;;;3.47;;
41677;SDS011;27364;49.026;8.712;2022-08-16T01:48:31;7.03;;;3.90;;
41677;SDS011;27364;49.026;8.712;2022-08-16T01:50:58;6.72;;;4.10;;
41677;SDS011;27364;49.026;8.712;2022-08-16T01:55:51;5.47;;;3.80;;
41677;SDS011;27364;49.026;8.712;2022-08-16T01:58:17;4.32;;;3.13;;
41677;SDS011;27364;49.026;8.712;2022-08-16T02:00:44;8.23;;;4.00;;
41677;SDS011;27364;49.026;8.712;2022-08-16T02:03:10;5.07;;;3.60;;
41677;SDS011;27364;49.026;8.712;2022-08-16T02:05:36;5.13;;;3.40;;
41677;SDS011;27364;49.026;8.712;2022-08-16T02:10:30;6.10;;;3.83;;
41677;SDS011;27364;49.026;8.712;2022-08-16T02:12:56;5.03;;;3.65;;
41677;SDS011;27364;49.026;8.712;2022-08-16T02:15:23;6.80;;;3.80;;
41677;SDS011;27364;49.026;8.712;2022-08-16T02:17:51;5.30;;;3.95;;
41677;SDS011;27364;49.026;8.712;2022-08-16T02:20:17;8.13;;;3.83;;
41677;SDS011;27364;49.026;8.712;2022-08-16T02:22:45;4.65;;;3.55;;
41677;SDS011;27364;49.026;8.712;2022-08-16T02:25:12;6.60;;;4.00;;
41677;SDS011;27364;49.026;8.712;2022-08-16T02:27:40;5.05;;;3.95;;
41677;SDS011;27364;49.026;8.712;2022-08-16T02:30:09;5.18;;;3.85;;
41677;SDS011;27364;49.026;8.712;2022-08-16T02:32:39;4.85;;;3.42;;
41677;SDS011;27364;49.026;8.712;2022-08-16T02:35:05;5.88;;;3.97;;
41677;SDS011;27364;49.026;8.712;2022-08-16T02:37:31;7.35;;;3.88;;
41677;SDS011;27364;49.026;8.712;2022-08-16T02:39:57;5.03;;;3.88;;
41677;SDS011;27364;49.026;8.712;2022-08-16T02:42:23;5.30;;;3.78;;
41677;SDS011;27364;49.026;8.712;2022-08-16T02:44:49;5.88;;;3.90;;
41677;SDS011;27364;49.026;8.712;2022-08-16T02:47:14;5.72;;;3.95;;
41677;SDS011;27364;49.026;8.712;2022-08-16T02:49:40;5.75;;;3.78;;
41677;SDS011;27364;49.026;8.712;2022-08-16T02:52:06;5.43;;;4.25;;
41677;SDS011;27364;49.026;8.712;2022-08-16T02:54:32;5.32;;;3.65;;
41677;SDS011;27364;49.026;8.712;2022-08-16T02:56:58;5.85;;;3.80;;
41677;SDS011;27364;49.026;8.712;2022-08-16T02:59:24;6.97;;;4.28;;
41677;SDS011;27364;49.026;8.712;2022-08-16T03:01:51;6.93;;;4.43;;
41677;SDS011;27364;49.026;8.712;2022-08-16T03:04:17;5.88;;;4.18;;
41677;SDS011;27364;49.026;8.712;2022-08-16T03:06:42;6.22;;;4.10;;
41677;SDS011;27364;49.026;8.712;2022-08-16T03:09:08;5.00;;;3.95;;
41677;SDS011;27364;49.026;8.712;2022-08-16T03:11:34;5.55;;;4.18;;
41677;SDS011;27364;49.026;8.712;2022-08-16T03:13:59;5.05;;;4.00;;
41677;SDS011;27364;49.026;8.712;2022-08-16T03:16:25;5.53;;;4.25;;
41677;SDS011;27364;49.026;8.712;2022-08-16T03:18:51;6.07;;;4.00;;
41677;SDS011;27364;49.026;8.712;2022-08-16T03:21:17;6.43;;;4.30;;
41677;SDS011;27364;49.026;8.712;2022-08-16T03:23:43;12.45;;;4.32;;
41677;SDS011;27364;49.026;8.712;2022-08-16T03:26:08;6.00;;;3.90;;
41677;SDS011;27364;49.026;8.712;2022-08-16T03:28:34;5.55;;;3.83;;
41677;SDS011;27364;49.026;8.712;2022-08-16T03:31:00;6.85;;;4.15;;
41677;SDS011;27364;49.026;8.712;2022-08-16T03:33:25;5.22;;;4.00;;
41677;SDS011;27364;49.026;8.712;2022-08-16T03:35:51;5.72;;;4.10;;
41677;SDS011;27364;49.026;8.712;2022-08-16T03:38:23;5.45;;;4.35;;
41677;SDS011;27364;49.026;8.712;2022-08-16T03:40:48;6.13;;;3.83;;
41677;SDS011;27364;49.026;8.712;2022-08-16T03:43:14;5.30;;;3.92;;
41677;SDS011;27364;49.026;8.712;2022-08-16T03:45:39;5.57;;;3.90;;
41677;SDS011;27364;49.026;8.712;2022-08-16T03:48:06;5.97;;;4.22;;
41677;SDS011;27364;49.026;8.712;2022-08-16T03:50:32;5.20;;;4.20;;
41677;SDS011;27364;49.026;8.712;2022-08-16T03:52:59;5.10;;;4.27;;
41677;SDS011;27364;49.026;8.712;2022-08-16T03:55:25;8.18;;;4.45;;
41677;SDS011;27364;49.026;8.712;2022-08-16T03:57:51;5.25;;;3.80;;
41677;SDS011;27364;49.026;8.712;2022-08-16T04:00:19;4.93;;;3.88;;
41677;SDS011;27364;49.026;8.712;2022-08-16T04:02:48;5.57;;;4.18;;
41677;SDS011;27364;49.026;8.712;2022-08-16T04:05:15;6.85;;;3.75;;
41677;SDS011;27364;49.026;8.712;2022-08-16T04:10:08;5.72;;;4.20;;
41677;SDS011;27364;49.026;8.712;2022-08-16T04:12:36;6.45;;;4.68;;
41677;SDS011;27364;49.026;8.712;2022-08-16T04:15:03;5.32;;;4.40;;
41677;SDS011;27364;49.026;8.712;2022-08-16T04:17:31;7.30;;;4.63;;
41677;SDS011;27364;49.026;8.712;2022-08-16T04:19:57;5.75;;;4.50;;
41677;SDS011;27364;49.026;8.712;2022-08-16T04:22:22;5.82;;;4.32;;
41677;SDS011;27364;49.026;8.712;2022-08-16T04:24:48;6.97;;;4.65;;
41677;SDS011;27364;49.026;8.712;2022-08-16T04:27:14;6.88;;;4.65;;
41677;SDS011;27364;49.026;8.712;2022-08-16T04:29:40;5.57;;;4.50;;
41677;SDS011;27364;49.026;8.712;2022-08-16T04:32:05;4.82;;;4.30;;
41677;SDS011;27364;49.026;8.712;2022-08-16T04:34:32;5.35;;;4.13;;
41677;SDS011;27364;49.026;8.712;2022-08-16T04:36:59;5.45;;;4.22;;
41677;SDS011;27364;49.026;8.712;2022-08-16T04:39:26;5.97;;;4.47;;
41677;SDS011;27364;49.026;8.712;2022-08-16T04:41:52;7.05;;;4.65;;
41677;SDS011;27364;49.026;8.712;2022-08-16T04:44:18;6.15;;;4.35;;
41677;SDS011;27364;49.026;8.712;2022-08-16T04:46:44;5.82;;;4.28;;
41677;SDS011;27364;49.026;8.712;2022-08-16T04:49:09;7.10;;;4.55;;
41677;SDS011;27364;49.026;8.712;2022-08-16T04:51:36;6.22;;;4.38;;
41677;SDS011;27364;49.026;8.712;2022-08-16T04:54:05;7.35;;;4.90;;
41677;SDS011;27364;49.026;8.712;2022-08-16T04:56:31;5.25;;;4.03;;
41677;SDS011;27364;49.026;8.712;2022-08-16T04:58:56;5.55;;;4.22;;
41677;SDS011;27364;49.026;8.712;2022-08-16T05:01:22;6.03;;;4.63;;
41677;SDS011;27364;49.026;8.712;2022-08-16T05:03:47;6.07;;;4.43;;
41677;SDS011;27364;49.026;8.712;2022-08-16T05:06:13;6.07;;;4.53;;
41677;SDS011;27364;49.026;8.712;2022-08-16T05:08:38;5.50;;;4.13;;
41677;SDS011;27364;49.026;8.712;2022-08-16T05:11:05;9.02;;;4.47;;
41677;SDS011;27364;49.026;8.712;2022-08-16T05:13:33;5.80;;;4.50;;
41677;SDS011;27364;49.026;8.712;2022-08-16T05:15:59;11.70;;;4.93;;
41677;SDS011;27364;49.026;8.712;2022-08-16T05:18:25;10.98;;;5.07;;
41677;SDS011;27364;49.026;8.712;2022-08-16T05:20:51;6.32;;;4.60;;
41677;SDS011;27364;49.026;8.712;2022-08-16T05:23:16;21.52;;;5.70;;
41677;SDS011;27364;49.026;8.712;2022-08-16T05:25:42;10.18;;;4.53;;
41677;SDS011;27364;49.026;8.712;2022-08-16T05:28:08;6.68;;;4.30;;
41677;SDS011;27364;49.026;8.712;2022-08-16T05:30:35;5.25;;;4.20;;
41677;SDS011;27364;49.026;8.712;2022-08-16T05:33:02;5.90;;;4.25;;
41677;SDS011;27364;49.026;8.712;2022-08-16T05:35:28;4.75;;;4.00;;
41677;SDS011;27364;49.026;8.712;2022-08-16T05:37:54;14.88;;;5.18;;
41677;SDS011;27364;49.026;8.712;2022-08-16T05:40:19;15.25;;;5.00;;
41677;SDS011;27364;49.026;8.712;2022-08-16T05:42:45;17.20;;;5.35;;
41677;SDS011;27364;49.026;8.712;2022-08-16T05:45:10;28.73;;;7.35;;
41677;SDS011;27364;49.026;8.712;2022-08-16T05:47:36;12.85;;;4.70;;
41677;SDS011;27364;49.026;8.712;2022-08-16T05:50:02;6.30;;;4.07;;
41677;SDS011;27364;49.026;8.712;2022-08-16T05:52:29;36.70;;;7.65;;
41677;SDS011;27364;49.026;8.712;2022-08-16T05:54:54;17.60;;;5.15;;
41677;SDS011;27364;49.026;8.712;2022-08-16T05:57:20;8.38;;;4.18;;
41677;SDS011;27364;49.026;8.712;2022-08-16T05:59:46;7.18;;;4.13;;
41677;SDS011;27364;49.026;8.712;2022-08-16T06:02:11;21.83;;;5.95;;
41677;SDS011;27364;49.026;8.712;2022-08-16T06:04:37;6.78;;;4.22;;
41677;SDS011;27364;49.026;8.712;2022-08-16T06:07:04;5.95;;;3.83;;
41677;SDS011;27364;49.026;8.712;2022-08-16T06:09:30;6.32;;;4.30;;
41677;SDS011;27364;49.026;8.712;2022-08-16T06:11:57;26.55;;;6.53;;
41677;SDS011;27364;49.026;8.712;2022-08-16T06:14:24;9.90;;;4.60;;
41677;SDS011;27364;49.026;8.712;2022-08-16T06:16:50;8.75;;;3.95;;
41677;SDS011;27364;49.026;8.712;2022-08-16T06:19:17;5.60;;;4.15;;
41677;SDS011;27364;49.026;8.712;2022-08-16T06:21:43;5.30;;;4.18;;
41677;SDS011;27364;49.026;8.712;2022-08-16T06:24:09;5.97;;;4.30;;
41677;SDS011;27364;49.026;8.712;2022-08-16T06:26:35;22.38;;;6.10;;
41677;SDS011;27364;49.026;8.712;2022-08-16T06:29:00;23.88;;;6.60;;
41677;SDS011;27364;49.026;8.712;2022-08-16T06:31:26;6.55;;;4.75;;
41677;SDS011;27364;49.026;8.712;2022-08-16T06:33:51;55.95;;;9.20;;
41677;SDS011;27364;49.026;8.712;2022-08-16T06:36:17;8.60;;;4.57;;
41677;SDS011;27364;49.026;8.712;2022-08-16T06:38:43;5.97;;;3.78;;
41677;SDS011;27364;49.026;8.712;2022-08-16T06:41:09;6.65;;;4.55;;
41677;SDS011;27364;49.026;8.712;2022-08-16T06:43:35;9.98;;;4.15;;
41677;SDS011;27364;49.026;8.712;2022-08-16T06:46:02;7.20;;;4.07;;
41677;SDS011;27364;49.026;8.712;2022-08-16T06:48:30;6.45;;;3.90;;
41677;SDS011;27364;49.026;8.712;2022-08-16T06:50:56;7.40;;;4.10;;
41677;SDS011;27364;49.026;8.712;2022-08-16T06:53:22;11.05;;;4.20;;
41677;SDS011;27364;49.026;8.712;2022-08-16T06:55:48;5.72;;;3.78;;
41677;SDS011;27364;49.026;8.712;2022-08-16T06:58:13;5.85;;;4.20;;
41677;SDS011;27364;49.026;8.712;2022-08-16T07:00:39;6.03;;;4.00;;
41677;SDS011;27364;49.026;8.712;2022-08-16T07:03:05;7.35;;;3.72;;
41677;SDS011;27364;49.026;8.712;2022-08-16T07:05:33;6.32;;;3.70;;
41677;SDS011;27364;49.026;8.712;2022-08-16T07:07:58;7.00;;;3.80;;
41677;SDS011;27364;49.026;8.712;2022-08-16T07:10:24;6.18;;;4.07;;
41677;SDS011;27364;49.026;8.712;2022-08-16T07:12:50;5.40;;;3.90;;
41677;SDS011;27364;49.026;8.712;2022-08-16T07:15:17;6.03;;;3.80;;
41677;SDS011;27364;49.026;8.712;2022-08-16T07:17:43;4.85;;;3.95;;
41677;SDS011;27364;49.026;8.712;2022-08-16T07:20:10;6.77;;;4.17;;
41677;SDS011;27364;49.026;8.712;2022-08-16T07:22:37;6.30;;;4.18;;
41677;SDS011;27364;49.026;8.712;2022-08-16T07:25:04;7.27;;;4.10;;
41677;SDS011;27364;49.026;8.712;2022-08-16T07:27:31;5.35;;;3.85;;
41677;SDS011;27364;49.026;8.712;2022-08-16T07:29:57;6.05;;;4.07;;
41677;SDS011;27364;49.026;8.712;2022-08-16T07:32:23;8.43;;;4.22;;
41677;SDS011;27364;49.026;8.712;2022-08-16T07:34:48;7.50;;;3.97;;
41677;SDS011;27364;49.026;8.712;2022-08-16T07:37:14;6.30;;;3.70;;
41677;SDS011;27364;49.026;8.712;2022-08-16T07:39:39;5.32;;;3.85;;
41677;SDS011;27364;49.026;8.712;2022-08-16T07:42:05;10.13;;;4.63;;
41677;SDS011;27364;49.026;8.712;2022-08-16T07:44:30;5.22;;;3.60;;
41677;SDS011;27364;49.026;8.712;2022-08-16T07:46:56;5.43;;;3.60;;
41677;SDS011;27364;49.026;8.712;2022-08-16T07:49:22;7.18;;;3.90;;
41677;SDS011;27364;49.026;8.712;2022-08-16T07:51:48;6.63;;;3.90;;
41677;SDS011;27364;49.026;8.712;2022-08-16T07:54:14;5.55;;;3.53;;
41677;SDS011;27364;49.026;8.712;2022-08-16T07:56:40;7.03;;;3.92;;
41677;SDS011;27364;49.026;8.712;2022-08-16T07:59:06;5.28;;;3.67;;
41677;SDS011;27364;49.026;8.712;2022-08-16T08:01:32;4.97;;;3.47;;
41677;SDS011;27364;49.026;8.712;2022-08-16T08:03:58;11.83;;;4.37;;
41677;SDS011;27364;49.026;8.712;2022-08-16T08:06:26;10.68;;;4.43;;
41677;SDS011;27364;49.026;8.712;2022-08-16T08:08:55;5.63;;;3.85;;
41677;SDS011;27364;49.026;8.712;2022-08-16T08:11:21;13.13;;;3.92;;
41677;SDS011;27364;49.026;8.712;2022-08-16T08:13:48;8.30;;;3.80;;
41677;SDS011;27364;49.026;8.712;2022-08-16T08:18:40;5.78;;;3.70;;
41677;SDS011;27364;49.026;8.712;2022-08-16T08:21:06;6.00;;;3.70;;
41677;SDS011;27364;49.026;8.712;2022-08-16T08:23:33;6.90;;;3.97;;
41677;SDS011;27364;49.026;8.712;2022-08-16T08:26:00;5.95;;;3.97;;
41677;SDS011;27364;49.026;8.712;2022-08-16T08:28:27;4.90;;;3.77;;
41677;SDS011;27364;49.026;8.712;2022-08-16T08:30:54;7.82;;;4.20;;
41677;SDS011;27364;49.026;8.712;2022-08-16T08:33:20;6.93;;;4.10;;
41677;SDS011;27364;49.026;8.712;2022-08-16T08:35:45;8.07;;;4.07;;
41677;SDS011;27364;49.026;8.712;2022-08-16T08:38:11;7.57;;;4.25;;
41677;SDS011;27364;49.026;8.712;2022-08-16T08:40:36;6.43;;;3.90;;
41677;SDS011;27364;49.026;8.712;2022-08-16T08:43:02;4.57;;;3.70;;
41677;SDS011;27364;49.026;8.712;2022-08-16T08:45:29;6.57;;;4.05;;
41677;SDS011;27364;49.026;8.712;2022-08-16T08:47:54;7.05;;;3.97;;
41677;SDS011;27364;49.026;8.712;2022-08-16T08:50:20;5.75;;;3.63;;
41677;SDS011;27364;49.026;8.712;2022-08-16T08:52:47;6.40;;;3.93;;
41677;SDS011;27364;49.026;8.712;2022-08-16T08:55:13;5.43;;;4.03;;
41677;SDS011;27364;49.026;8.712;2022-08-16T08:57:44;6.27;;;3.83;;
41677;SDS011;27364;49.026;8.712;2022-08-16T09:00:11;6.80;;;3.83;;
41677;SDS011;27364;49.026;8.712;2022-08-16T09:02:39;6.53;;;4.00;;
41677;SDS011;27364;49.026;8.712;2022-08-16T09:05:06;6.32;;;4.10;;
41677;SDS011;27364;49.026;8.712;2022-08-16T09:07:32;6.43;;;4.10;;
41677;SDS011;27364;49.026;8.712;2022-08-16T09:09:58;5.47;;;3.80;;
41677;SDS011;27364;49.026;8.712;2022-08-16T09:12:23;7.53;;;4.45;;
41677;SDS011;27364;49.026;8.712;2022-08-16T09:14:49;5.95;;;3.78;;
41677;SDS011;27364;49.026;8.712;2022-08-16T09:17:15;7.70;;;3.63;;
41677;SDS011;27364;49.026;8.712;2022-08-16T09:19:40;6.55;;;3.80;;
41677;SDS011;27364;49.026;8.712;2022-08-16T09:22:07;5.22;;;3.83;;
41677;SDS011;27364;49.026;8.712;2022-08-16T09:26:59;7.82;;;3.85;;
41677;SDS011;27364;49.026;8.712;2022-08-16T09:29:25;7.20;;;4.00;;
41677;SDS011;27364;49.026;8.712;2022-08-16T09:31:50;6.03;;;3.60;;
41677;SDS011;27364;49.026;8.712;2022-08-16T09:34:16;5.60;;;3.50;;
41677;SDS011;27364;49.026;8.712;2022-08-16T09:36:42;4.90;;;3.47;;
41677;SDS011;27364;49.026;8.712;2022-08-16T09:39:08;6.47;;;3.42;;
41677;SDS011;27364;49.026;8.712;2022-08-16T09:41:33;7.30;;;3.83;;
41677;SDS011;27364;49.026;8.712;2022-08-16T09:43:59;5.85;;;3.70;;
41677;SDS011;27364;49.026;8.712;2022-08-16T09:46:27;5.40;;;3.70;;
41677;SDS011;27364;49.026;8.712;2022-08-16T09:48:53;5.78;;;3.75;;
41677;SDS011;27364;49.026;8.712;2022-08-16T09:51:19;5.20;;;3.60;;
41677;SDS011;27364;49.026;8.712;2022-08-16T09:53:47;5.88;;;3.55;;
41677;SDS011;27364;49.026;8.712;2022-08-16T09:56:19;6.47;;;3.50;;
41677;SDS011;27364;49.026;8.712;2022-08-16T09:58:49;5.28;;;3.42;;
41677;SDS011;27364;49.026;8.712;2022-08-16T10:01:15;4.82;;;3.38;;
41677;SDS011;27364;49.026;8.712;2022-08-16T10:03:40;5.03;;;3.20;;
41677;SDS011;27364;49.026;8.712;2022-08-16T10:06:06;6.45;;;3.72;;
41677;SDS011;27364;49.026;8.712;2022-08-16T10:08:32;5.93;;;3.72;;
41677;SDS011;27364;49.026;8.712;2022-08-16T10:10:57;6.78;;;3.53;;
41677;SDS011;27364;49.026;8.712;2022-08-16T10:13:41;6.65;;;3.70;;
41677;SDS011;27364;49.026;8.712;2022-08-16T10:16:08;4.40;;;3.25;;
41677;SDS011;27364;49.026;8.712;2022-08-16T10:18:37;5.18;;;3.00;;
41677;SDS011;27364;49.026;8.712;2022-08-16T10:23:30;4.22;;;3.35;;
41677;SDS011;27364;49.026;8.712;2022-08-16T10:25:56;6.20;;;3.25;;
41677;SDS011;27364;49.026;8.712;2022-08-16T10:28:23;6.38;;;3.28;;
41677;SDS011;27364;49.026;8.712;2022-08-16T10:30:49;5.32;;;3.30;;
41677;SDS011;27364;49.026;8.712;2022-08-16T10:33:15;5.78;;;3.50;;
41677;SDS011;27364;49.026;8.712;2022-08-16T10:35:41;5.65;;;3.15;;
41677;SDS011;27364;49.026;8.712;2022-08-16T10:38:08;6.18;;;3.47;;
41677;SDS011;27364;49.026;8.712;2022-08-16T10:40:34;5.72;;;3.28;;
41677;SDS011;27364;49.026;8.712;2022-08-16T10:43:00;5.90;;;3.55;;
41677;SDS011;27364;49.026;8.712;2022-08-16T10:45:26;5.13;;;3.42;;
41677;SDS011;27364;49.026;8.712;2022-08-16T10:47:54;4.97;;;3.50;;
41677;SDS011;27364;49.026;8.712;2022-08-16T10:50:20;6.35;;;3.17;;
41677;SDS011;27364;49.026;8.712;2022-08-16T10:52:46;5.55;;;3.65;;
41677;SDS011;27364;49.026;8.712;2022-08-16T10:55:11;5.85;;;3.65;;
41677;SDS011;27364;49.026;8.712;2022-08-16T10:57:38;5.22;;;3.60;;
41677;SDS011;27364;49.026;8.712;2022-08-16T11:00:08;5.53;;;3.20;;
41677;SDS011;27364;49.026;8.712;2022-08-16T11:02:36;4.70;;;3.40;;
41677;SDS011;27364;49.026;8.712;2022-08-16T11:05:03;6.85;;;3.20;;
41677;SDS011;27364;49.026;8.712;2022-08-16T11:07:29;5.78;;;3.10;;
41677;SDS011;27364;49.026;8.712;2022-08-16T11:09:55;3.90;;;3.25;;
41677;SDS011;27364;49.026;8.712;2022-08-16T11:12:22;4.82;;;3.03;;
41677;SDS011;27364;49.026;8.712;2022-08-16T11:14:47;5.05;;;2.83;;
41677;SDS011;27364;49.026;8.712;2022-08-16T11:17:13;5.03;;;3.17;;
41677;SDS011;27364;49.026;8.712;2022-08-16T11:19:38;4.47;;;3.05;;
41677;SDS011;27364;49.026;8.712;2022-08-16T11:22:05;4.80;;;3.05;;
41677;SDS011;27364;49.026;8.712;2022-08-16T11:24:31;5.45;;;3.08;;
41677;SDS011;27364;49.026;8.712;2022-08-16T11:26:57;5.45;;;3.30;;
41677;SDS011;27364;49.026;8.712;2022-08-16T11:29:24;3.85;;;2.85;;
41677;SDS011;27364;49.026;8.712;2022-08-16T11:31:49;4.22;;;2.63;;
41677;SDS011;27364;49.026;8.712;2022-08-16T11:34:15;5.43;;;3.15;;
41677;SDS011;27364;49.026;8.712;2022-08-16T11:36:41;4.57;;;2.60;;
41677;SDS011;27364;49.026;8.712;2022-08-16T11:39:07;5.20;;;3.20;;
41677;SDS011;27364;49.026;8.712;2022-08-16T11:41:33;4.80;;;3.00;;
41677;SDS011;27364;49.026;8.712;2022-08-16T11:44:02;4.13;;;2.67;;
41677;SDS011;27364;49.026;8.712;2022-08-16T11:46:30;6.78;;;3.35;;
41677;SDS011;27364;49.026;8.712;2022-08-16T11:48:58;4.70;;;2.80;;
41677;SDS011;27364;49.026;8.712;2022-08-16T11:51:24;4.35;;;2.70;;
41677;SDS011;27364;49.026;8.712;2022-08-16T11:53:50;5.15;;;2.85;;
41677;SDS011;27364;49.026;8.712;2022-08-16T11:56:16;6.13;;;2.85;;
41677;SDS011;27364;49.026;8.712;2022-08-16T11:58:42;5.30;;;2.83;;
41677;SDS011;27364;49.026;8.712;2022-08-16T12:01:08;4.80;;;2.72;;
41677;SDS011;27364;49.026;8.712;2022-08-16T12:03:34;5.25;;;2.88;;
41677;SDS011;27364;49.026;8.712;2022-08-16T12:06:00;4.57;;;2.70;;
41677;SDS011;27364;49.026;8.712;2022-08-16T12:08:33;4.30;;;2.80;;
41677;SDS011;27364;49.026;8.712;2022-08-16T12:10:59;4.80;;;2.80;;
41677;SDS011;27364;49.026;8.712;2022-08-16T12:13:25;4.38;;;2.80;;
41677;SDS011;27364;49.026;8.712;2022-08-16T12:15:51;4.03;;;2.97;;
41677;SDS011;27364;49.026;8.712;2022-08-16T12:18:17;5.47;;;3.15;;
41677;SDS011;27364;49.026;8.712;2022-08-16T12:20:43;4.68;;;3.10;;
41677;SDS011;27364;49.026;8.712;2022-08-16T12:23:09;4.43;;;2.92;;
41677;SDS011;27364;49.026;8.712;2022-08-16T12:25:35;4.00;;;3.20;;
41677;SDS011;27364;49.026;8.712;2022-08-16T12:28:02;5.30;;;3.00;;
41677;SDS011;27364;49.026;8.712;2022-08-16T12:32:56;4.15;;;2.85;;
41677;SDS011;27364;49.026;8.712;2022-08-16T12:35:24;3.63;;;2.70;;
41677;SDS011;27364;49.026;8.712;2022-08-16T12:37:50;4.25;;;2.72;;
41677;SDS011;27364;49.026;8.712;2022-08-16T12:40:17;7.13;;;3.20;;
41677;SDS011;27364;49.026;8.712;2022-08-16T12:42:46;5.82;;;2.90;;
41677;SDS011;27364;49.026;8.712;2022-08-16T12:45:16;6.22;;;3.25;;
41677;SDS011;27364;49.026;8.712;2022-08-16T12:47:43;6.43;;;3.13;;
41677;SDS011;27364;49.026;8.712;2022-08-16T12:50:28;8.50;;;2.80;;
41677;SDS011;27364;49.026;8.712;2022-08-16T12:52:54;4.70;;;2.90;;
41677;SDS011;27364;49.026;8.712;2022-08-16T12:55:21;5.32;;;2.63;;
41677;SDS011;27364;49.026;8.712;2022-08-16T12:57:47;6.10;;;2.83;;
41677;SDS011;27364;49.026;8.712;2022-08-16T13:00:16;4.57;;;2.70;;
41677;SDS011;27364;49.026;8.712;2022-08-16T13:02:42;4.07;;;2.80;;
41677;SDS011;27364;49.026;8.712;2022-08-16T13:05:08;4.25;;;3.00;;
41677;SDS011;27364;49.026;8.712;2022-08-16T13:07:37;4.35;;;2.60;;
41677;SDS011;27364;49.026;8.712;2022-08-16T13:12:38;5.22;;;3.00;;
41677;SDS011;27364;49.026;8.712;2022-08-16T13:15:10;4.65;;;2.80;;
41677;SDS011;27364;49.026;8.712;2022-08-16T13:17:38;6.45;;;3.03;;
41677;SDS011;27364;49.026;8.712;2022-08-16T13:20:05;4.85;;;3.00;;
41677;SDS011;27364;49.026;8.712;2022-08-16T13:22:35;4.22;;;2.60;;
41677;SDS011;27364;49.026;8.712;2022-08-16T13:25:06;4.95;;;3.13;;
41677;SDS011;27364;49.026;8.712;2022-08-16T13:27:32;4.35;;;2.70;;
41677;SDS011;27364;49.026;8.712;2022-08-16T13:29:58;5.50;;;2.55;;
41677;SDS011;27364;49.026;8.712;2022-08-16T13:32:24;4.47;;;2.40;;
41677;SDS011;27364;49.026;8.712;2022-08-16T13:34:49;4.80;;;2.97;;
41677;SDS011;27364;49.026;8.712;2022-08-16T13:37:15;3.70;;;2.38;;
41677;SDS011;27364;49.026;8.712;2022-08-16T13:39:41;4.43;;;2.60;;
41677;SDS011;27364;49.026;8.712;2022-08-16T13:42:11;3.63;;;2.70;;
41677;SDS011;27364;49.026;8.712;2022-08-16T13:44:37;4.43;;;2.67;;
41677;SDS011;27364;49.026;8.712;2022-08-16T13:47:04;6.32;;;2.60;;
41677;SDS011;27364;49.026;8.712;2022-08-16T13:49:30;4.40;;;2.63;;
41677;SDS011;27364;49.026;8.712;2022-08-16T13:51:55;4.13;;;2.50;;
41677;SDS011;27364;49.026;8.712;2022-08-16T13:56:48;4.35;;;2.60;;
41677;SDS011;27364;49.026;8.712;2022-08-16T13:59:13;3.55;;;2.53;;
41677;SDS011;27364;49.026;8.712;2022-08-16T14:01:40;4.88;;;2.70;;
41677;SDS011;27364;49.026;8.712;2022-08-16T14:04:06;4.95;;;2.60;;
41677;SDS011;27364;49.026;8.712;2022-08-16T14:06:32;5.22;;;2.90;;
41677;SDS011;27364;49.026;8.712;2022-08-16T14:08:58;3.30;;;2.60;;
41677;SDS011;27364;49.026;8.712;2022-08-16T14:11:24;4.85;;;2.40;;
41677;SDS011;27364;49.026;8.712;2022-08-16T14:13:49;4.05;;;2.42;;
41677;SDS011;27364;49.026;8.712;2022-08-16T14:16:15;5.07;;;2.58;;
41677;SDS011;27364;49.026;8.712;2022-08-16T14:18:40;3.55;;;2.55;;
41677;SDS011;27364;49.026;8.712;2022-08-16T14:21:06;3.47;;;2.38;;
41677;SDS011;27364;49.026;8.712;2022-08-16T14:23:32;4.10;;;2.75;;
41677;SDS011;27364;49.026;8.712;2022-08-16T14:25:58;3.70;;;2.72;;
41677;SDS011;27364;49.026;8.712;2022-08-16T14:28:24;3.78;;;2.60;;
41677;SDS011;27364;49.026;8.712;2022-08-16T14:30:49;4.45;;;3.05;;
41677;SDS011;27364;49.026;8.712;2022-08-16T14:33:15;4.88;;;2.55;;
41677;SDS011;27364;49.026;8.712;2022-08-16T14:35:41;5.35;;;2.65;;
41677;SDS011;27364;49.026;8.712;2022-08-16T14:38:07;4.47;;;2.60;;
41677;SDS011;27364;49.026;8.712;2022-08-16T14:40:33;3.50;;;2.25;;
41677;SDS011;27364;49.026;8.712;2022-08-16T14:42:59;4.72;;;2.40;;
41677;SDS011;27364;49.026;8.712;2022-08-16T14:45:26;4.07;;;2.20;;
41677;SDS011;27364;49.026;8.712;2022-08-16T14:50:19;4.17;;;2.40;;
41677;SDS011;27364;49.026;8.712;2022-08-16T14:52:51;4.22;;;2.70;;
41677;SDS011;27364;49.026;8.712;2022-08-16T14:55:20;3.67;;;2.63;;
41677;SDS011;27364;49.026;8.712;2022-08-16T14:57:46;3.55;;;2.20;;
41677;SDS011;27364;49.026;8.712;2022-08-16T15:00:12;6.38;;;2.53;;
41677;SDS011;27364;49.026;8.712;2022-08-16T15:02:39;4.32;;;2.30;;
41677;SDS011;27364;49.026;8.712;2022-08-16T15:05:06;4.78;;;2.15;;
41677;SDS011;27364;49.026;8.712;2022-08-16T15:07:33;4.72;;;2.65;;
41677;SDS011;27364;49.026;8.712;2022-08-16T15:09:59;4.03;;;2.75;;
41677;SDS011;27364;49.026;8.712;2022-08-16T15:12:25;7.30;;;2.50;;
41677;SDS011;27364;49.026;8.712;2022-08-16T15:14:52;3.65;;;2.45;;
41677;SDS011;27364;49.026;8.712;2022-08-16T15:17:19;4.78;;;2.40;;